Terminal Aerodrome Forecast
Issued by NWS Wichita, KS

Home | Current Version | Previous Version | Graphics & Text | Print | Product List | Glossary On
Versions: 1 2 3 4 5 6 7 8 9 10 11 12 13 14 15
784
FTUS43 KICT 232326
TAFICT
TAF
KICT 232326Z 2400/2424 14014G20KT P6SM SCT250
     FM240100 16007KT P6SM SCT250
     FM241700 18015G23KT P6SM SCT150=

USA.gov is the U.S. government's official web portal to all federal, state and local government web resources and services.